sensor_id;sensor_type;location;lat;lon;timestamp;temperature;humidity
68139;DHT22;54940;50.842;4.410;2023-10-19T00:00:14;16.20;99.90
68139;DHT22;54940;50.842;4.410;2023-10-19T00:02:49;16.30;99.90
68139;DHT22;54940;50.842;4.410;2023-10-19T00:05:19;16.30;99.90
68139;DHT22;54940;50.842;4.410;2023-10-19T00:07:48;16.20;99.90
68139;DHT22;54940;50.842;4.410;2023-10-19T00:10:15;16.30;99.90
68139;DHT22;54940;50.842;4.410;2023-10-19T00:12:42;16.30;99.90
68139;DHT22;54940;50.842;4.410;2023-10-19T00:15:10;16.30;99.90
68139;DHT22;54940;50.842;4.410;2023-10-19T00:17:37;16.30;99.90
68139;DHT22;54940;50.842;4.410;2023-10-19T00:20:06;16.20;99.90
68139;DHT22;54940;50.842;4.410;2023-10-19T00:22:50;16.20;99.90
68139;DHT22;54940;50.842;4.410;2023-10-19T00:25:18;16.20;99.90
68139;DHT22;54940;50.842;4.410;2023-10-19T00:27:43;16.20;99.90
68139;DHT22;54940;50.842;4.410;2023-10-19T00:30:11;16.30;99.90
68139;DHT22;54940;50.842;4.410;2023-10-19T00:32:38;16.30;99.90
68139;DHT22;54940;50.842;4.410;2023-10-19T00:35:05;16.30;99.90
68139;DHT22;54940;50.842;4.410;2023-10-19T00:37:46;16.20;99.90
68139;DHT22;54940;50.842;4.410;2023-10-19T00:40:14;16.30;99.90
68139;DHT22;54940;50.842;4.410;2023-10-19T00:42:52;16.20;99.90
68139;DHT22;54940;50.842;4.410;2023-10-19T00:45:22;16.30;99.90
68139;DHT22;54940;50.842;4.410;2023-10-19T00:47:52;16.30;99.90
68139;DHT22;54940;50.842;4.410;2023-10-19T00:50:20;16.30;99.90
68139;DHT22;54940;50.842;4.410;2023-10-19T00:52:48;16.30;99.90
68139;DHT22;54940;50.842;4.410;2023-10-19T00:55:18;16.30;99.90
68139;DHT22;54940;50.842;4.410;2023-10-19T00:57:46;16.20;99.90
68139;DHT22;54940;50.842;4.410;2023-10-19T01:00:15;16.20;99.90
68139;DHT22;54940;50.842;4.410;2023-10-19T01:02:55;16.20;99.90
68139;DHT22;54940;50.842;4.410;2023-10-19T01:05:26;16.20;99.90
68139;DHT22;54940;50.842;4.410;2023-10-19T01:07:58;16.20;99.90
68139;DHT22;54940;50.842;4.410;2023-10-19T01:10:26;16.20;99.90
68139;DHT22;54940;50.842;4.410;2023-10-19T01:12:54;16.20;99.90
68139;DHT22;54940;50.842;4.410;2023-10-19T01:15:21;16.20;99.90
68139;DHT22;54940;50.842;4.410;2023-10-19T01:17:54;16.30;99.90
68139;DHT22;54940;50.842;4.410;2023-10-19T01:20:30;16.30;99.90
68139;DHT22;54940;50.842;4.410;2023-10-19T01:23:03;16.30;99.90
68139;DHT22;54940;50.842;4.410;2023-10-19T01:28:11;16.30;99.90
68139;DHT22;54940;50.842;4.410;2023-10-19T01:30:41;16.20;99.90
68139;DHT22;54940;50.842;4.410;2023-10-19T01:33:07;16.20;99.90
68139;DHT22;54940;50.842;4.410;2023-10-19T01:35:41;16.20;99.90
68139;DHT22;54940;50.842;4.410;2023-10-19T01:38:27;16.20;99.90
68139;DHT22;54940;50.842;4.410;2023-10-19T01:41:03;16.20;99.90
68139;DHT22;54940;50.842;4.410;2023-10-19T01:43:51;16.10;99.90
68139;DHT22;54940;50.842;4.410;2023-10-19T01:46:23;16.10;99.90
68139;DHT22;54940;50.842;4.410;2023-10-19T01:48:56;16.10;99.90
68139;DHT22;54940;50.842;4.410;2023-10-19T01:51:26;16.20;99.90
68139;DHT22;54940;50.842;4.410;2023-10-19T01:53:53;16.10;99.90
68139;DHT22;54940;50.842;4.410;2023-10-19T01:56:21;16.20;99.90
68139;DHT22;54940;50.842;4.410;2023-10-19T01:58:48;16.20;99.90
68139;DHT22;54940;50.842;4.410;2023-10-19T02:01:17;16.30;99.90
68139;DHT22;54940;50.842;4.410;2023-10-19T02:03:59;16.20;99.90
68139;DHT22;54940;50.842;4.410;2023-10-19T02:06:27;16.20;99.90
68139;DHT22;54940;50.842;4.410;2023-10-19T02:09:01;16.10;99.90
68139;DHT22;54940;50.842;4.410;2023-10-19T02:11:44;16.20;99.90
68139;DHT22;54940;50.842;4.410;2023-10-19T02:14:11;16.20;99.90
68139;DHT22;54940;50.842;4.410;2023-10-19T02:16:50;16.20;99.90
68139;DHT22;54940;50.842;4.410;2023-10-19T02:19:17;16.20;99.90
68139;DHT22;54940;50.842;4.410;2023-10-19T02:21:43;16.20;99.90
68139;DHT22;54940;50.842;4.410;2023-10-19T02:24:13;16.10;99.90
68139;DHT22;54940;50.842;4.410;2023-10-19T02:26:44;16.00;99.90
68139;DHT22;54940;50.842;4.410;2023-10-19T02:29:10;15.90;99.90
68139;DHT22;54940;50.842;4.410;2023-10-19T02:31:37;15.90;99.90
68139;DHT22;54940;50.842;4.410;2023-10-19T02:34:03;15.90;99.90
68139;DHT22;54940;50.842;4.410;2023-10-19T02:36:36;16.00;99.90
68139;DHT22;54940;50.842;4.410;2023-10-19T02:39:07;15.90;99.90
68139;DHT22;54940;50.842;4.410;2023-10-19T02:41:34;16.00;99.90
68139;DHT22;54940;50.842;4.410;2023-10-19T02:44:14;15.90;99.90
68139;DHT22;54940;50.842;4.410;2023-10-19T02:46:43;15.90;99.90
68139;DHT22;54940;50.842;4.410;2023-10-19T02:49:11;15.90;99.90
68139;DHT22;54940;50.842;4.410;2023-10-19T02:51:41;15.90;99.90
68139;DHT22;54940;50.842;4.410;2023-10-19T02:54:07;15.90;99.90
68139;DHT22;54940;50.842;4.410;2023-10-19T02:56:34;15.90;99.90
68139;DHT22;54940;50.842;4.410;2023-10-19T02:59:05;15.90;99.90
68139;DHT22;54940;50.842;4.410;2023-10-19T03:01:31;15.80;99.90
68139;DHT22;54940;50.842;4.410;2023-10-19T03:04:00;15.80;99.90
68139;DHT22;54940;50.842;4.410;2023-10-19T03:06:27;15.80;99.90
68139;DHT22;54940;50.842;4.410;2023-10-19T03:09:00;15.80;99.90
68139;DHT22;54940;50.842;4.410;2023-10-19T03:11:43;15.70;99.90
68139;DHT22;54940;50.842;4.410;2023-10-19T03:14:10;15.70;99.90
68139;DHT22;54940;50.842;4.410;2023-10-19T03:16:37;15.70;99.90
68139;DHT22;54940;50.842;4.410;2023-10-19T03:19:06;15.70;99.90
68139;DHT22;54940;50.842;4.410;2023-10-19T03:21:33;15.80;99.90
68139;DHT22;54940;50.842;4.410;2023-10-19T03:24:07;15.70;99.90
68139;DHT22;54940;50.842;4.410;2023-10-19T03:26:37;15.80;99.90
68139;DHT22;54940;50.842;4.410;2023-10-19T03:29:04;15.80;99.90
68139;DHT22;54940;50.842;4.410;2023-10-19T03:31:37;15.80;99.90
68139;DHT22;54940;50.842;4.410;2023-10-19T03:34:09;15.80;99.90
68139;DHT22;54940;50.842;4.410;2023-10-19T03:36:38;15.90;99.90
68139;DHT22;54940;50.842;4.410;2023-10-19T03:39:03;15.90;99.90
68139;DHT22;54940;50.842;4.410;2023-10-19T03:41:39;15.90;99.90
68139;DHT22;54940;50.842;4.410;2023-10-19T03:44:10;15.90;99.90
68139;DHT22;54940;50.842;4.410;2023-10-19T03:46:42;15.90;99.90
68139;DHT22;54940;50.842;4.410;2023-10-19T03:49:19;15.90;99.90
68139;DHT22;54940;50.842;4.410;2023-10-19T03:51:47;15.90;99.90
68139;DHT22;54940;50.842;4.410;2023-10-19T03:54:32;16.00;99.90
68139;DHT22;54940;50.842;4.410;2023-10-19T03:56:58;16.00;99.90
68139;DHT22;54940;50.842;4.410;2023-10-19T03:59:29;16.00;99.90
68139;DHT22;54940;50.842;4.410;2023-10-19T04:01:58;16.00;99.90
68139;DHT22;54940;50.842;4.410;2023-10-19T04:04:25;16.00;99.90
68139;DHT22;54940;50.842;4.410;2023-10-19T04:06:51;16.00;99.90
68139;DHT22;54940;50.842;4.410;2023-10-19T04:09:26;16.00;99.90
68139;DHT22;54940;50.842;4.410;2023-10-19T04:11:58;15.90;99.90
68139;DHT22;54940;50.842;4.410;2023-10-19T04:14:23;15.90;99.90
68139;DHT22;54940;50.842;4.410;2023-10-19T04:16:49;15.90;99.90
68139;DHT22;54940;50.842;4.410;2023-10-19T04:19:15;15.90;99.90
68139;DHT22;54940;50.842;4.410;2023-10-19T04:21:42;16.00;99.90
68139;DHT22;54940;50.842;4.410;2023-10-19T04:24:12;16.00;99.90
68139;DHT22;54940;50.842;4.410;2023-10-19T04:26:39;15.90;99.90
68139;DHT22;54940;50.842;4.410;2023-10-19T04:29:05;15.90;99.90
68139;DHT22;54940;50.842;4.410;2023-10-19T04:31:38;15.90;99.90
68139;DHT22;54940;50.842;4.410;2023-10-19T04:34:14;15.90;99.90
68139;DHT22;54940;50.842;4.410;2023-10-19T04:36:40;16.00;99.90
68139;DHT22;54940;50.842;4.410;2023-10-19T04:39:05;16.00;99.90
68139;DHT22;54940;50.842;4.410;2023-10-19T04:41:37;15.90;99.90
68139;DHT22;54940;50.842;4.410;2023-10-19T04:44:02;15.90;99.90
68139;DHT22;54940;50.842;4.410;2023-10-19T04:46:28;16.00;99.90
68139;DHT22;54940;50.842;4.410;2023-10-19T04:48:54;16.00;99.90
68139;DHT22;54940;50.842;4.410;2023-10-19T04:51:20;16.00;99.90
68139;DHT22;54940;50.842;4.410;2023-10-19T04:53:46;16.00;99.90
68139;DHT22;54940;50.842;4.410;2023-10-19T04:56:14;16.10;99.90
68139;DHT22;54940;50.842;4.410;2023-10-19T04:58:40;16.00;99.90
68139;DHT22;54940;50.842;4.410;2023-10-19T05:01:06;16.00;99.90
68139;DHT22;54940;50.842;4.410;2023-10-19T05:03:31;15.90;99.90
68139;DHT22;54940;50.842;4.410;2023-10-19T05:05:58;16.00;99.90
68139;DHT22;54940;50.842;4.410;2023-10-19T05:08:24;15.90;99.90
68139;DHT22;54940;50.842;4.410;2023-10-19T05:10:56;15.90;99.90
68139;DHT22;54940;50.842;4.410;2023-10-19T05:13:25;15.90;99.90
68139;DHT22;54940;50.842;4.410;2023-10-19T05:15:54;16.00;99.90
68139;DHT22;54940;50.842;4.410;2023-10-19T05:18:21;16.00;99.90
68139;DHT22;54940;50.842;4.410;2023-10-19T05:20:48;16.10;99.90
68139;DHT22;54940;50.842;4.410;2023-10-19T05:23:13;16.00;99.90
68139;DHT22;54940;50.842;4.410;2023-10-19T05:25:40;15.90;99.90
68139;DHT22;54940;50.842;4.410;2023-10-19T05:28:06;16.00;99.90
68139;DHT22;54940;50.842;4.410;2023-10-19T05:30:35;16.00;99.90
68139;DHT22;54940;50.842;4.410;2023-10-19T05:33:01;16.10;99.90
68139;DHT22;54940;50.842;4.410;2023-10-19T05:35:29;16.10;99.90
68139;DHT22;54940;50.842;4.410;2023-10-19T05:37:56;16.00;99.90
68139;DHT22;54940;50.842;4.410;2023-10-19T05:40:25;16.10;99.90
68139;DHT22;54940;50.842;4.410;2023-10-19T05:42:57;16.00;99.90
68139;DHT22;54940;50.842;4.410;2023-10-19T05:45:26;16.00;99.90
68139;DHT22;54940;50.842;4.410;2023-10-19T05:47:55;16.00;99.90
68139;DHT22;54940;50.842;4.410;2023-10-19T05:50:22;16.00;99.90
68139;DHT22;54940;50.842;4.410;2023-10-19T05:52:48;16.00;99.90
68139;DHT22;54940;50.842;4.410;2023-10-19T05:55:14;16.00;99.90
68139;DHT22;54940;50.842;4.410;2023-10-19T05:57:43;16.10;99.90
68139;DHT22;54940;50.842;4.410;2023-10-19T06:00:11;16.00;99.90
68139;DHT22;54940;50.842;4.410;2023-10-19T06:02:48;16.10;99.90
68139;DHT22;54940;50.842;4.410;2023-10-19T06:05:18;16.10;99.90
68139;DHT22;54940;50.842;4.410;2023-10-19T06:07:47;16.00;99.90
68139;DHT22;54940;50.842;4.410;2023-10-19T06:10:15;16.00;99.90
68139;DHT22;54940;50.842;4.410;2023-10-19T06:12:46;16.00;99.90
68139;DHT22;54940;50.842;4.410;2023-10-19T06:15:13;16.10;99.90
68139;DHT22;54940;50.842;4.410;2023-10-19T06:17:40;16.20;99.90
68139;DHT22;54940;50.842;4.410;2023-10-19T06:20:10;16.00;99.90
68139;DHT22;54940;50.842;4.410;2023-10-19T06:22:53;16.00;99.90
68139;DHT22;54940;50.842;4.410;2023-10-19T06:25:20;16.00;99.90
68139;DHT22;54940;50.842;4.410;2023-10-19T06:27:47;16.00;99.90
68139;DHT22;54940;50.842;4.410;2023-10-19T06:30:14;16.00;99.90
68139;DHT22;54940;50.842;4.410;2023-10-19T06:32:50;16.00;99.90
68139;DHT22;54940;50.842;4.410;2023-10-19T06:35:20;16.00;99.90
68139;DHT22;54940;50.842;4.410;2023-10-19T06:37:49;16.00;99.90
68139;DHT22;54940;50.842;4.410;2023-10-19T06:40:17;16.10;99.90
68139;DHT22;54940;50.842;4.410;2023-10-19T06:42:44;16.10;99.90
68139;DHT22;54940;50.842;4.410;2023-10-19T06:45:13;16.10;99.90
68139;DHT22;54940;50.842;4.410;2023-10-19T06:47:43;16.10;99.90
68139;DHT22;54940;50.842;4.410;2023-10-19T06:50:13;16.10;99.90
68139;DHT22;54940;50.842;4.410;2023-10-19T06:52:42;16.10;99.90
68139;DHT22;54940;50.842;4.410;2023-10-19T06:55:12;16.10;99.90
68139;DHT22;54940;50.842;4.410;2023-10-19T06:57:50;16.10;99.90
68139;DHT22;54940;50.842;4.410;2023-10-19T07:00:17;16.20;99.90
68139;DHT22;54940;50.842;4.410;2023-10-19T07:02:48;16.20;99.90
68139;DHT22;54940;50.842;4.410;2023-10-19T07:05:15;16.20;99.90
68139;DHT22;54940;50.842;4.410;2023-10-19T07:27:57;16.40;99.90
68139;DHT22;54940;50.842;4.410;2023-10-19T07:30:25;16.40;99.90
68139;DHT22;54940;50.842;4.410;2023-10-19T07:32:53;16.30;99.90
68139;DHT22;54940;50.842;4.410;2023-10-19T07:35:26;16.20;99.90
68139;DHT22;54940;50.842;4.410;2023-10-19T07:37:52;16.30;99.90
68139;DHT22;54940;50.842;4.410;2023-10-19T07:40:18;16.30;99.90
68139;DHT22;54940;50.842;4.410;2023-10-19T07:54:12;16.40;99.90
68139;DHT22;54940;50.842;4.410;2023-10-19T07:56:38;16.30;99.90
68139;DHT22;54940;50.842;4.410;2023-10-19T07:59:04;16.40;99.90
68139;DHT22;54940;50.842;4.410;2023-10-19T08:01:32;16.40;99.90
68139;DHT22;54940;50.842;4.410;2023-10-19T08:03:58;16.40;99.90
68139;DHT22;54940;50.842;4.410;2023-10-19T08:06:23;16.50;99.90
68139;DHT22;54940;50.842;4.410;2023-10-19T08:08:49;16.50;99.90
68139;DHT22;54940;50.842;4.410;2023-10-19T08:11:15;16.50;99.90
68139;DHT22;54940;50.842;4.410;2023-10-19T08:13:42;16.50;99.90
68139;DHT22;54940;50.842;4.410;2023-10-19T08:16:08;16.60;99.90
68139;DHT22;54940;50.842;4.410;2023-10-19T08:18:34;16.60;99.90
68139;DHT22;54940;50.842;4.410;2023-10-19T08:21:04;16.70;99.90
68139;DHT22;54940;50.842;4.410;2023-10-19T08:23:29;16.80;99.90
68139;DHT22;54940;50.842;4.410;2023-10-19T08:25:57;16.80;99.90
68139;DHT22;54940;50.842;4.410;2023-10-19T08:28:24;16.90;99.90
68139;DHT22;54940;50.842;4.410;2023-10-19T08:30:49;17.00;99.90
68139;DHT22;54940;50.842;4.410;2023-10-19T08:33:27;17.00;99.90
68139;DHT22;54940;50.842;4.410;2023-10-19T08:35:54;17.00;99.90
68139;DHT22;54940;50.842;4.410;2023-10-19T08:38:20;17.10;99.90
68139;DHT22;54940;50.842;4.410;2023-10-19T08:40:47;17.10;99.90
68139;DHT22;54940;50.842;4.410;2023-10-19T08:43:13;17.10;99.90
68139;DHT22;54940;50.842;4.410;2023-10-19T08:45:39;17.20;99.90
68139;DHT22;54940;50.842;4.410;2023-10-19T08:48:05;17.10;99.90
68139;DHT22;54940;50.842;4.410;2023-10-19T08:50:32;17.10;99.90
68139;DHT22;54940;50.842;4.410;2023-10-19T08:53:02;17.10;99.90
68139;DHT22;54940;50.842;4.410;2023-10-19T08:55:28;17.20;99.90
68139;DHT22;54940;50.842;4.410;2023-10-19T08:57:55;17.10;99.90
68139;DHT22;54940;50.842;4.410;2023-10-19T09:00:24;17.10;99.90
68139;DHT22;54940;50.842;4.410;2023-10-19T09:02:51;17.20;99.90
68139;DHT22;54940;50.842;4.410;2023-10-19T09:05:18;17.20;99.90
68139;DHT22;54940;50.842;4.410;2023-10-19T09:07:54;17.20;99.90
68139;DHT22;54940;50.842;4.410;2023-10-19T09:10:27;17.20;99.90
68139;DHT22;54940;50.842;4.410;2023-10-19T09:13:07;17.20;99.90
68139;DHT22;54940;50.842;4.410;2023-10-19T09:15:40;17.10;99.90
68139;DHT22;54940;50.842;4.410;2023-10-19T09:18:18;17.20;99.90
68139;DHT22;54940;50.842;4.410;2023-10-19T09:20:48;17.20;99.90
68139;DHT22;54940;50.842;4.410;2023-10-19T09:23:23;17.20;99.90
68139;DHT22;54940;50.842;4.410;2023-10-19T09:25:49;17.30;99.90
68139;DHT22;54940;50.842;4.410;2023-10-19T09:28:15;17.30;99.90
68139;DHT22;54940;50.842;4.410;2023-10-19T09:30:43;17.30;99.90
68139;DHT22;54940;50.842;4.410;2023-10-19T09:33:09;17.30;99.90
68139;DHT22;54940;50.842;4.410;2023-10-19T09:35:35;17.30;99.90
68139;DHT22;54940;50.842;4.410;2023-10-19T09:38:03;17.40;99.90
68139;DHT22;54940;50.842;4.410;2023-10-19T09:40:31;17.40;99.90
68139;DHT22;54940;50.842;4.410;2023-10-19T09:42:58;17.50;99.90
68139;DHT22;54940;50.842;4.410;2023-10-19T09:45:30;17.50;99.90
68139;DHT22;54940;50.842;4.410;2023-10-19T09:48:00;17.50;99.90
68139;DHT22;54940;50.842;4.410;2023-10-19T09:50:27;17.60;99.90
68139;DHT22;54940;50.842;4.410;2023-10-19T09:52:55;17.50;99.90
68139;DHT22;54940;50.842;4.410;2023-10-19T09:55:27;17.60;99.90
68139;DHT22;54940;50.842;4.410;2023-10-19T09:58:05;17.50;99.90
68139;DHT22;54940;50.842;4.410;2023-10-19T10:00:33;17.50;99.90
68139;DHT22;54940;50.842;4.410;2023-10-19T10:03:00;17.50;99.90
68139;DHT22;54940;50.842;4.410;2023-10-19T10:10:47;17.70;99.90
68139;DHT22;54940;50.842;4.410;2023-10-19T10:16:00;17.80;99.90
68139;DHT22;54940;50.842;4.410;2023-10-19T10:18:33;17.90;99.90
68139;DHT22;54940;50.842;4.410;2023-10-19T10:21:07;18.00;99.90
68139;DHT22;54940;50.842;4.410;2023-10-19T10:23:46;18.00;99.90
68139;DHT22;54940;50.842;4.410;2023-10-19T10:26:14;18.10;99.90
68139;DHT22;54940;50.842;4.410;2023-10-19T10:28:41;18.10;99.90
68139;DHT22;54940;50.842;4.410;2023-10-19T10:31:21;18.20;99.90
68139;DHT22;54940;50.842;4.410;2023-10-19T10:33:51;18.20;99.90
68139;DHT22;54940;50.842;4.410;2023-10-19T10:36:18;18.20;99.90
68139;DHT22;54940;50.842;4.410;2023-10-19T10:38:46;18.20;99.90
68139;DHT22;54940;50.842;4.410;2023-10-19T10:41:12;18.30;99.90
68139;DHT22;54940;50.842;4.410;2023-10-19T10:43:52;18.30;99.90
68139;DHT22;54940;50.842;4.410;2023-10-19T10:46:19;18.30;99.90
68139;DHT22;54940;50.842;4.410;2023-10-19T10:48:45;18.20;99.90
68139;DHT22;54940;50.842;4.410;2023-10-19T10:51:19;18.10;99.90
68139;DHT22;54940;50.842;4.410;2023-10-19T10:53:49;18.10;99.90
68139;DHT22;54940;50.842;4.410;2023-10-19T10:56:16;18.10;99.90
68139;DHT22;54940;50.842;4.410;2023-10-19T10:58:42;18.10;99.90
68139;DHT22;54940;50.842;4.410;2023-10-19T11:01:08;18.10;99.90
68139;DHT22;54940;50.842;4.410;2023-10-19T11:03:36;18.10;99.90
68139;DHT22;54940;50.842;4.410;2023-10-19T11:06:10;18.10;99.90
68139;DHT22;54940;50.842;4.410;2023-10-19T11:08:39;18.10;99.90
68139;DHT22;54940;50.842;4.410;2023-10-19T11:11:07;18.00;99.90
68139;DHT22;54940;50.842;4.410;2023-10-19T11:13:36;18.00;99.90
68139;DHT22;54940;50.842;4.410;2023-10-19T11:16:04;18.00;99.90
68139;DHT22;54940;50.842;4.410;2023-10-19T11:18:38;18.00;99.90
68139;DHT22;54940;50.842;4.410;2023-10-19T11:21:09;18.00;99.90
68139;DHT22;54940;50.842;4.410;2023-10-19T11:23:45;18.10;99.90
68139;DHT22;54940;50.842;4.410;2023-10-19T11:26:13;18.20;99.90
68139;DHT22;54940;50.842;4.410;2023-10-19T11:28:40;18.20;99.90
68139;DHT22;54940;50.842;4.410;2023-10-19T11:31:18;18.20;99.90
68139;DHT22;54940;50.842;4.410;2023-10-19T11:33:46;18.10;99.90
68139;DHT22;54940;50.842;4.410;2023-10-19T11:36:14;18.30;99.90
68139;DHT22;54940;50.842;4.410;2023-10-19T11:38:41;18.30;99.90
68139;DHT22;54940;50.842;4.410;2023-10-19T11:41:07;18.30;99.90
68139;DHT22;54940;50.842;4.410;2023-10-19T11:43:34;18.20;99.90
68139;DHT22;54940;50.842;4.410;2023-10-19T11:46:00;18.20;99.90
68139;DHT22;54940;50.842;4.410;2023-10-19T11:48:28;18.20;99.90
68139;DHT22;54940;50.842;4.410;2023-10-19T11:50:53;18.20;99.90
68139;DHT22;54940;50.842;4.410;2023-10-19T11:53:19;18.20;99.90
68139;DHT22;54940;50.842;4.410;2023-10-19T11:55:45;18.10;99.90
68139;DHT22;54940;50.842;4.410;2023-10-19T11:58:14;18.10;99.90
68139;DHT22;54940;50.842;4.410;2023-10-19T12:00:42;18.20;99.90
68139;DHT22;54940;50.842;4.410;2023-10-19T12:03:12;18.10;99.90
68139;DHT22;54940;50.842;4.410;2023-10-19T12:05:38;18.00;99.90
68139;DHT22;54940;50.842;4.410;2023-10-19T12:08:04;18.00;99.90
68139;DHT22;54940;50.842;4.410;2023-10-19T12:10:30;18.00;99.90
68139;DHT22;54940;50.842;4.410;2023-10-19T12:13:02;18.00;99.90
68139;DHT22;54940;50.842;4.410;2023-10-19T12:15:29;18.00;99.90
68139;DHT22;54940;50.842;4.410;2023-10-19T12:17:55;18.00;99.90
68139;DHT22;54940;50.842;4.410;2023-10-19T12:20:20;18.00;99.90
68139;DHT22;54940;50.842;4.410;2023-10-19T12:22:49;18.00;99.90
68139;DHT22;54940;50.842;4.410;2023-10-19T12:25:20;18.10;99.90
68139;DHT22;54940;50.842;4.410;2023-10-19T12:27:54;18.00;99.90
68139;DHT22;54940;50.842;4.410;2023-10-19T12:30:20;17.90;99.90
68139;DHT22;54940;50.842;4.410;2023-10-19T12:32:48;17.90;99.90
68139;DHT22;54940;50.842;4.410;2023-10-19T12:35:15;17.90;99.90
68139;DHT22;54940;50.842;4.410;2023-10-19T12:37:41;18.00;99.90
68139;DHT22;54940;50.842;4.410;2023-10-19T12:40:16;18.00;99.90
68139;DHT22;54940;50.842;4.410;2023-10-19T12:42:55;18.10;99.90
68139;DHT22;54940;50.842;4.410;2023-10-19T12:45:25;18.10;99.90
68139;DHT22;54940;50.842;4.410;2023-10-19T12:47:51;18.30;99.90
68139;DHT22;54940;50.842;4.410;2023-10-19T12:50:21;18.40;99.90
68139;DHT22;54940;50.842;4.410;2023-10-19T12:52:50;18.60;99.90
68139;DHT22;54940;50.842;4.410;2023-10-19T12:55:17;18.80;99.90
68139;DHT22;54940;50.842;4.410;2023-10-19T12:57:44;19.00;99.90
68139;DHT22;54940;50.842;4.410;2023-10-19T13:00:10;19.00;99.90
68139;DHT22;54940;50.842;4.410;2023-10-19T13:02:55;19.00;99.90
68139;DHT22;54940;50.842;4.410;2023-10-19T13:05:27;19.00;99.90
68139;DHT22;54940;50.842;4.410;2023-10-19T13:07:54;19.00;99.90
68139;DHT22;54940;50.842;4.410;2023-10-19T13:10:27;19.00;99.90
68139;DHT22;54940;50.842;4.410;2023-10-19T13:12:53;18.90;99.90
68139;DHT22;54940;50.842;4.410;2023-10-19T13:15:19;18.90;99.90
68139;DHT22;54940;50.842;4.410;2023-10-19T13:17:47;19.00;99.90
68139;DHT22;54940;50.842;4.410;2023-10-19T13:20:15;19.00;99.90
68139;DHT22;54940;50.842;4.410;2023-10-19T13:22:44;18.90;99.90
68139;DHT22;54940;50.842;4.410;2023-10-19T13:25:11;18.80;99.90
68139;DHT22;54940;50.842;4.410;2023-10-19T13:27:43;18.70;99.90
68139;DHT22;54940;50.842;4.410;2023-10-19T13:30:14;18.70;99.90
68139;DHT22;54940;50.842;4.410;2023-10-19T13:32:42;18.60;99.90
68139;DHT22;54940;50.842;4.410;2023-10-19T13:35:08;18.60;99.90
68139;DHT22;54940;50.842;4.410;2023-10-19T13:37:34;18.50;99.90
68139;DHT22;54940;50.842;4.410;2023-10-19T13:40:04;18.60;99.90
68139;DHT22;54940;50.842;4.410;2023-10-19T13:42:32;18.50;99.90
68139;DHT22;54940;50.842;4.410;2023-10-19T13:44:57;18.60;99.90
68139;DHT22;54940;50.842;4.410;2023-10-19T13:47:26;18.60;99.90
68139;DHT22;54940;50.842;4.410;2023-10-19T13:49:51;18.60;99.90
68139;DHT22;54940;50.842;4.410;2023-10-19T13:52:17;18.60;99.90
68139;DHT22;54940;50.842;4.410;2023-10-19T13:54:44;18.50;99.90
68139;DHT22;54940;50.842;4.410;2023-10-19T13:57:10;18.60;99.90
68139;DHT22;54940;50.842;4.410;2023-10-19T13:59:36;18.40;99.90
68139;DHT22;54940;50.842;4.410;2023-10-19T14:02:04;18.40;99.90
68139;DHT22;54940;50.842;4.410;2023-10-19T14:04:31;18.40;99.90
68139;DHT22;54940;50.842;4.410;2023-10-19T14:06:56;18.40;99.90
68139;DHT22;54940;50.842;4.410;2023-10-19T14:09:23;18.40;99.90
68139;DHT22;54940;50.842;4.410;2023-10-19T14:11:49;18.40;99.90
68139;DHT22;54940;50.842;4.410;2023-10-19T14:14:16;18.40;99.90
68139;DHT22;54940;50.842;4.410;2023-10-19T14:16:42;18.40;99.90
68139;DHT22;54940;50.842;4.410;2023-10-19T14:19:12;18.40;99.90
68139;DHT22;54940;50.842;4.410;2023-10-19T14:21:40;18.40;99.90
68139;DHT22;54940;50.842;4.410;2023-10-19T14:24:06;18.40;99.90
68139;DHT22;54940;50.842;4.410;2023-10-19T14:26:33;18.40;99.90
68139;DHT22;54940;50.842;4.410;2023-10-19T14:29:01;18.40;99.90
68139;DHT22;54940;50.842;4.410;2023-10-19T14:31:27;18.40;99.90
68139;DHT22;54940;50.842;4.410;2023-10-19T14:33:53;18.40;99.90
68139;DHT22;54940;50.842;4.410;2023-10-19T14:36:18;18.40;99.90
68139;DHT22;54940;50.842;4.410;2023-10-19T14:38:44;18.40;99.90
68139;DHT22;54940;50.842;4.410;2023-10-19T14:41:11;18.30;99.90
68139;DHT22;54940;50.842;4.410;2023-10-19T14:43:37;18.30;99.90
68139;DHT22;54940;50.842;4.410;2023-10-19T14:46:05;18.30;99.90
68139;DHT22;54940;50.842;4.410;2023-10-19T14:48:31;18.30;99.90
68139;DHT22;54940;50.842;4.410;2023-10-19T14:50:57;18.30;99.90
68139;DHT22;54940;50.842;4.410;2023-10-19T14:53:23;18.30;99.90
68139;DHT22;54940;50.842;4.410;2023-10-19T14:55:50;18.40;99.90
68139;DHT22;54940;50.842;4.410;2023-10-19T14:58:15;18.40;99.90
68139;DHT22;54940;50.842;4.410;2023-10-19T15:00:41;18.40;99.90
68139;DHT22;54940;50.842;4.410;2023-10-19T15:03:20;18.40;99.90
68139;DHT22;54940;50.842;4.410;2023-10-19T15:05:53;18.40;99.90
68139;DHT22;54940;50.842;4.410;2023-10-19T15:08:18;18.40;99.90
68139;DHT22;54940;50.842;4.410;2023-10-19T15:10:49;18.40;99.90
68139;DHT22;54940;50.842;4.410;2023-10-19T15:13:16;18.40;99.90
68139;DHT22;54940;50.842;4.410;2023-10-19T15:15:42;18.30;99.90
68139;DHT22;54940;50.842;4.410;2023-10-19T15:18:08;18.40;99.90
68139;DHT22;54940;50.842;4.410;2023-10-19T15:20:33;18.30;99.90
68139;DHT22;54940;50.842;4.410;2023-10-19T15:23:00;18.30;99.90
68139;DHT22;54940;50.842;4.410;2023-10-19T15:25:26;18.30;99.90
68139;DHT22;54940;50.842;4.410;2023-10-19T15:27:53;18.30;99.90
68139;DHT22;54940;50.842;4.410;2023-10-19T15:30:19;18.40;99.90
68139;DHT22;54940;50.842;4.410;2023-10-19T15:32:49;18.40;99.90
68139;DHT22;54940;50.842;4.410;2023-10-19T15:35:16;18.30;99.90
68139;DHT22;54940;50.842;4.410;2023-10-19T15:37:47;18.30;99.90
68139;DHT22;54940;50.842;4.410;2023-10-19T15:40:16;18.30;99.90
68139;DHT22;54940;50.842;4.410;2023-10-19T15:42:42;18.30;99.90
68139;DHT22;54940;50.842;4.410;2023-10-19T15:45:13;18.20;99.90
68139;DHT22;54940;50.842;4.410;2023-10-19T15:47:41;18.30;99.90
68139;DHT22;54940;50.842;4.410;2023-10-19T15:50:08;18.10;99.90
68139;DHT22;54940;50.842;4.410;2023-10-19T15:52:36;18.20;99.90
68139;DHT22;54940;50.842;4.410;2023-10-19T15:55:10;18.10;99.90
68139;DHT22;54940;50.842;4.410;2023-10-19T15:57:37;18.10;99.90
68139;DHT22;54940;50.842;4.410;2023-10-19T16:00:03;18.10;99.90
68139;DHT22;54940;50.842;4.410;2023-10-19T16:02:32;18.20;99.90
68139;DHT22;54940;50.842;4.410;2023-10-19T16:04:57;18.10;99.90
68139;DHT22;54940;50.842;4.410;2023-10-19T16:07:23;18.20;99.90
68139;DHT22;54940;50.842;4.410;2023-10-19T16:09:49;18.10;99.90
68139;DHT22;54940;50.842;4.410;2023-10-19T16:12:15;18.10;99.90
68139;DHT22;54940;50.842;4.410;2023-10-19T16:14:43;18.10;99.90
68139;DHT22;54940;50.842;4.410;2023-10-19T16:17:08;18.20;99.90
68139;DHT22;54940;50.842;4.410;2023-10-19T16:19:34;18.10;99.90
68139;DHT22;54940;50.842;4.410;2023-10-19T16:22:03;18.00;99.90